Time;durP1;ratioP1;P1;durP2;ratioP2;P2;SDS_P1;SDS_P2;PMS_P1;PMS_P2;Temp;Humidity;BMP_temperature;BMP_pressure;BME280_temperature;BME280_humidity;BME280_pressure;Samples;Min_cycle;Max_cycle;Signal;HPM_P1;HPM_P2
2022/08/23 00:01:35;;;;;;;;;;;27.10;76.70;;;;;;5033740;28;20026;-91
2022/08/23 00:04:05;;;;;;;1.75;1.00;;;27.10;76.90;;;;;;5033381;28;19912;-88
2022/08/23 00:06:31;;;;;;;1.42;1.00;;;27.10;76.90;;;;;;5031911;28;20021;-88
2022/08/23 00:08:57;;;;;;;1.60;1.10;;;27.10;77.00;;;;;;5045988;28;20112;-88
2022/08/23 00:11:26;;;;;;;1.92;1.10;;;27.10;76.90;;;;;;5052161;28;20384;-92
2022/08/23 00:13:52;;;;;;;1.67;1.20;;;27.20;77.00;;;;;;5047384;28;20033;-89
2022/08/23 00:16:18;;;;;;;1.45;1.10;;;27.20;77.00;;;;;;5051606;28;20032;-90
2022/08/23 00:18:43;;;;;;;1.95;1.30;;;27.10;76.90;;;;;;5055004;28;20096;-90
2022/08/23 00:21:12;;;;;;;1.85;1.10;;;27.20;77.70;;;;;;5054248;28;20033;-88
2022/08/23 00:23:38;;;;;;;1.45;1.05;;;27.00;77.10;;;;;;5043722;28;20021;-88
2022/08/23 00:26:04;;;;;;;3.97;1.20;;;27.00;77.20;;;;;;5046107;28;20028;-88
2022/08/23 00:28:30;;;;;;;2.42;1.30;;;27.00;77.50;;;;;;5055920;28;20049;-89
2022/08/23 00:30:56;;;;;;;1.83;1.00;;;26.90;77.70;;;;;;5043929;28;20382;-90
2022/08/23 00:33:23;;;;;;;3.05;1.25;;;26.90;77.60;;;;;;5045089;28;20071;-87
2022/08/23 00:35:49;;;;;;;1.75;1.17;;;26.90;77.60;;;;;;5055318;28;20029;-89
2022/08/23 00:38:14;;;;;;;3.17;1.00;;;26.90;77.60;;;;;;5046685;28;20393;-91
2022/08/23 00:40:45;;;;;;;2.00;1.20;;;27.00;77.70;;;;;;5056160;28;20056;-88
2022/08/23 00:49:12;;;;;;;2.38;1.40;;;27.00;77.70;;;;;;5035613;28;20061;-88
2022/08/23 00:51:47;;;;;;;1.33;1.23;;;26.90;77.60;;;;;;5048540;28;20113;-87
2022/08/23 00:54:15;;;;;;;1.30;1.20;;;26.90;77.60;;;;;;5054348;28;20063;-89
2022/08/23 00:56:41;;;;;;;4.13;1.52;;;26.90;77.60;;;;;;5055176;28;20028;-84
2022/08/23 00:59:07;;;;;;;2.72;1.80;;;26.90;77.80;;;;;;5052113;28;20440;-84
2022/08/23 01:01:34;;;;;;;4.25;2.58;;;26.90;77.80;;;;;;5053541;28;20017;-83
2022/08/23 01:04:00;;;;;;;2.35;1.90;;;26.80;77.70;;;;;;5041880;28;20129;-83
2022/08/23 01:07:11;;;;;;;2.42;1.40;;;26.80;77.70;;;;;;5054975;28;20104;-86
2022/08/23 01:09:40;;;;;;;2.50;1.30;;;26.80;77.90;;;;;;5041715;28;20093;-91
2022/08/23 01:12:17;;;;;;;2.55;1.52;;;26.70;77.80;;;;;;5060230;28;20041;-86
2022/08/23 01:14:53;;;;;;;2.05;1.40;;;26.70;78.00;;;;;;5058277;28;20033;-89
2022/08/23 01:17:30;;;;;;;1.65;0.90;;;26.60;78.00;;;;;;5057422;28;20032;-90
2022/08/23 01:20:02;;;;;;;3.42;1.50;;;26.60;78.10;;;;;;5054885;28;20059;-86
2022/08/23 01:22:51;;;;;;;3.17;1.30;;;26.50;78.10;;;;;;5055059;28;20040;-90
2022/08/23 01:25:20;;;;;;;2.25;1.30;;;26.50;78.50;;;;;;5049418;28;20053;-90
2022/08/23 01:27:47;;;;;;;2.87;1.33;;;26.50;78.30;;;;;;5055134;28;20024;-89
2022/08/23 01:30:22;;;;;;;1.77;1.55;;;26.40;78.60;;;;;;5053432;28;20048;-90
2022/08/23 01:32:54;;;;;;;9.43;1.73;;;26.40;78.50;;;;;;5039767;28;20025;-88
2022/08/23 01:35:23;;;;;;;4.03;1.83;;;26.40;78.70;;;;;;5053649;28;20565;-88
2022/08/23 01:37:50;;;;;;;3.00;1.65;;;26.40;78.60;;;;;;5046720;28;20117;-90
2022/08/23 01:40:17;;;;;;;3.13;1.67;;;26.30;78.50;;;;;;5056650;28;20051;-85
2022/08/23 01:42:43;;;;;;;2.75;1.40;;;26.30;78.50;;;;;;5057404;28;20048;-86
2022/08/23 01:45:11;;;;;;;1.70;1.27;;;26.30;78.50;;;;;;5055044;28;20044;-89
2022/08/23 01:47:37;;;;;;;1.83;1.30;;;26.20;78.30;;;;;;5055609;28;20029;-89
2022/08/23 01:50:03;;;;;;;2.03;1.50;;;26.20;78.30;;;;;;5054477;28;20028;-86
2022/08/23 01:52:29;;;;;;;3.17;1.80;;;26.30;78.40;;;;;;5054147;28;20513;-87
2022/08/23 01:54:56;;;;;;;1.95;1.60;;;26.30;78.40;;;;;;5047143;28;20021;-91
2022/08/23 01:57:22;;;;;;;2.03;1.50;;;26.40;78.60;;;;;;5051467;28;20029;-85
2022/08/23 01:59:48;;;;;;;1.50;1.27;;;26.40;78.60;;;;;;5052348;28;20044;-84
2022/08/23 02:02:14;;;;;;;3.53;1.30;;;26.40;78.70;;;;;;5052315;28;20037;-84
2022/08/23 02:04:40;;;;;;;2.33;1.50;;;26.40;78.60;;;;;;5051834;28;20056;-84
2022/08/23 02:07:05;;;;;;;3.67;1.30;;;26.40;78.60;;;;;;5052740;28;20037;-84
2022/08/23 02:09:31;;;;;;;4.15;2.45;;;26.40;78.60;;;;;;5052816;28;20120;-84
2022/08/23 02:11:57;;;;;;;5.63;3.05;;;26.20;79.10;;;;;;5052171;28;20040;-84
2022/08/23 02:14:22;;;;;;;7.03;4.43;;;26.20;78.60;;;;;;5053632;28;20082;-83
2022/08/23 02:16:54;;;;;;;8.43;4.43;;;26.20;78.80;;;;;;5052329;28;20065;-83
2022/08/23 02:19:20;;;;;;;7.63;4.72;;;26.10;78.90;;;;;;5053560;28;20493;-83
2022/08/23 02:21:46;;;;;;;8.35;3.50;;;26.00;79.40;;;;;;5051756;28;20107;-83
2022/08/23 02:24:19;;;;;;;5.13;2.67;;;25.90;79.80;;;;;;5048026;28;20044;-83
2022/08/23 02:26:52;;;;;;;3.83;2.55;;;25.70;80.00;;;;;;5047571;28;20473;-84
2022/08/23 02:29:21;;;;;;;3.40;2.33;;;25.70;80.50;;;;;;5053271;28;20021;-83
2022/08/23 02:31:47;;;;;;;4.53;1.95;;;25.70;79.70;;;;;;5053099;28;20039;-83
2022/08/23 02:34:15;;;;;;;3.95;1.90;;;25.70;79.70;;;;;;5053097;28;20108;-87
2022/08/23 02:36:42;;;;;;;2.97;2.10;;;25.70;79.80;;;;;;5053071;28;20032;-87
2022/08/23 02:39:08;;;;;;;4.13;1.90;;;25.70;80.00;;;;;;5043481;28;20095;-87
2022/08/23 02:41:36;;;;;;;2.28;1.80;;;25.60;79.80;;;;;;5052912;28;20044;-88
2022/08/23 02:44:03;;;;;;;3.28;2.20;;;25.60;79.60;;;;;;5052791;28;20041;-88
2022/08/23 02:46:29;;;;;;;2.90;2.10;;;25.60;79.80;;;;;;5040369;28;20032;-88
2022/08/23 02:48:55;;;;;;;3.38;2.08;;;25.60;79.60;;;;;;5052506;28;20029;-88
2022/08/23 02:51:21;;;;;;;3.65;1.50;;;25.60;79.60;;;;;;5048498;28;20072;-87
2022/08/23 02:53:47;;;;;;;2.38;1.67;;;25.60;79.40;;;;;;5050066;28;20032;-89
2022/08/23 02:56:13;;;;;;;2.13;1.92;;;25.60;79.30;;;;;;5053710;28;20397;-89
2022/08/23 02:58:39;;;;;;;2.58;1.90;;;25.70;79.30;;;;;;5044000;28;20029;-89
2022/08/23 03:01:05;;;;;;;3.08;1.30;;;25.70;79.30;;;;;;5052394;28;20053;-89
2022/08/23 03:03:30;;;;;;;3.63;1.75;;;25.70;79.10;;;;;;5051915;28;20037;-89
2022/08/23 03:05:56;;;;;;;3.05;1.90;;;25.70;79.10;;;;;;5052768;28;20036;-87
2022/08/23 03:08:23;;;;;;;2.97;1.73;;;25.80;79.30;;;;;;5050706;28;20033;-88
2022/08/23 03:10:51;;;;;;;3.25;2.00;;;25.70;79.20;;;;;;5037389;28;20041;-88
2022/08/23 03:13:17;;;;;;;1.92;1.65;;;25.70;79.30;;;;;;5052648;28;20043;-88
2022/08/23 03:15:44;;;;;;;3.55;1.95;;;25.60;79.20;;;;;;5052768;28;20040;-89
2022/08/23 03:18:11;;;;;;;1.75;1.50;;;25.60;79.30;;;;;;5052842;28;20024;-88
2022/08/23 03:20:40;;;;;;;2.75;2.03;;;25.60;79.30;;;;;;5038014;28;20466;-88
2022/08/23 03:23:08;;;;;;;2.03;1.52;;;25.60;79.30;;;;;;5037523;28;20029;-90
2022/08/23 03:25:34;;;;;;;2.72;1.83;;;25.70;79.40;;;;;;5037437;28;20386;-87
2022/08/23 03:28:06;;;;;;;2.63;1.65;;;25.70;79.40;;;;;;5033688;28;20034;-87
2022/08/23 03:30:33;;;;;;;1.70;1.58;;;25.70;79.30;;;;;;5032746;28;20028;-89
2022/08/23 03:33:00;;;;;;;2.72;1.50;;;25.60;79.30;;;;;;5047654;28;20104;-89
2022/08/23 03:35:28;;;;;;;1.90;1.48;;;25.70;79.30;;;;;;5053689;28;20028;-89
2022/08/23 03:37:54;;;;;;;1.80;1.40;;;25.60;79.20;;;;;;5052480;28;20024;-87
2022/08/23 03:40:21;;;;;;;2.83;1.67;;;25.70;79.10;;;;;;5053328;28;20029;-86
2022/08/23 03:42:48;;;;;;;2.22;1.73;;;25.60;79.10;;;;;;5052724;28;20041;-87
2022/08/23 03:45:13;;;;;;;2.10;1.63;;;25.60;79.10;;;;;;5052871;28;20033;-88
2022/08/23 03:47:39;;;;;;;2.40;1.70;;;25.60;79.20;;;;;;5053168;28;20025;-87
2022/08/23 03:50:05;;;;;;;2.92;1.80;;;25.50;79.10;;;;;;5051694;28;20036;-89
2022/08/23 03:52:32;;;;;;;1.80;1.38;;;25.50;79.10;;;;;;5044440;28;20072;-92
2022/08/23 03:54:58;;;;;;;2.10;1.55;;;25.60;79.20;;;;;;5038024;28;20381;-90
2022/08/23 03:57:24;;;;;;;4.03;2.05;;;25.60;79.50;;;;;;5036249;28;20056;-90
2022/08/23 03:59:49;;;;;;;1.95;1.40;;;25.70;79.70;;;;;;5037146;28;20040;-91
2022/08/23 04:02:15;;;;;;;2.40;1.35;;;25.70;79.60;;;;;;5037387;28;20026;-92
2022/08/23 04:04:41;;;;;;;3.05;1.88;;;25.70;79.60;;;;;;5036813;28;20025;-88
2022/08/23 04:07:08;;;;;;;2.50;1.63;;;25.70;79.60;;;;;;5051906;28;20033;-89
2022/08/23 04:09:33;;;;;;;3.88;1.70;;;25.80;79.60;;;;;;5045866;28;20029;-89
2022/08/23 04:11:59;;;;;;;1.58;1.27;;;25.80;79.70;;;;;;5037140;28;20112;-83
2022/08/23 04:14:25;;;;;;;2.15;1.42;;;25.80;79.60;;;;;;5036678;28;20029;-84
2022/08/23 04:16:51;;;;;;;1.63;1.40;;;25.80;79.60;;;;;;5036020;28;20025;-83
2022/08/23 04:19:17;;;;;;;2.40;1.30;;;25.80;79.70;;;;;;5053570;28;20039;-89
2022/08/23 04:21:48;;;;;;;1.65;1.48;;;25.70;79.70;;;;;;5054063;28;20021;-83
2022/08/23 04:24:15;;;;;;;1.98;1.65;;;25.70;79.70;;;;;;5042990;28;20033;-89
2022/08/23 04:26:41;;;;;;;1.67;1.58;;;25.70;79.40;;;;;;5039184;28;20481;-91
2022/08/23 04:29:07;;;;;;;1.60;1.42;;;25.70;79.50;;;;;;5055175;28;20481;-89
2022/08/23 04:31:33;;;;;;;1.70;1.40;;;25.70;79.70;;;;;;5056521;28;20035;-89
2022/08/23 04:33:59;;;;;;;2.47;1.77;;;25.70;79.70;;;;;;5056196;28;20116;-85
2022/08/23 04:36:26;;;;;;;2.50;1.80;;;25.60;79.40;;;;;;5054482;28;20160;-87
2022/08/23 04:38:52;;;;;;;7.18;1.90;;;25.60;79.40;;;;;;5055878;28;20025;-86
2022/08/23 04:44:04;;;;;;;3.85;1.70;;;25.50;79.50;;;;;;5055416;28;20122;-85
2022/08/23 04:46:30;;;;;;;2.55;1.75;;;25.40;79.50;;;;;;5046415;28;20036;-86
2022/08/23 04:48:56;;;;;;;2.63;1.35;;;25.40;79.60;;;;;;5054890;28;20024;-86
2022/08/23 04:51:21;;;;;;;2.08;1.63;;;25.30;79.50;;;;;;5049444;28;20068;-87
2022/08/23 04:53:48;;;;;;;4.32;1.60;;;25.30;79.50;;;;;;5053899;28;20155;-86
2022/08/23 04:56:14;;;;;;;2.53;1.50;;;25.30;79.50;;;;;;5042925;28;20060;-89
2022/08/23 04:58:40;;;;;;;5.55;2.17;;;25.30;79.50;;;;;;5057783;28;20108;-89
2022/08/23 05:01:09;;;;;;;5.35;2.10;;;25.30;79.50;;;;;;5055819;28;20481;-85
2022/08/23 05:03:36;;;;;;;3.15;1.73;;;25.20;79.60;;;;;;5066112;28;20074;-86
2022/08/23 05:06:03;;;;;;;3.95;2.00;;;25.20;79.60;;;;;;5075047;28;20025;-85
2022/08/23 05:08:30;;;;;;;3.03;2.03;;;25.10;80.00;;;;;;5075541;28;20100;-83
2022/08/23 05:11:00;;;;;;;2.92;1.38;;;25.10;79.60;;;;;;5075416;28;20054;-84
2022/08/23 05:13:27;;;;;;;3.10;1.40;;;25.10;79.50;;;;;;5059734;28;20025;-84
2022/08/23 05:15:52;;;;;;;2.25;1.67;;;25.20;79.80;;;;;;5054710;28;20374;-84
2022/08/23 05:18:18;;;;;;;2.05;1.60;;;25.20;79.90;;;;;;5049025;28;20219;-91
2022/08/23 05:20:44;;;;;;;3.08;1.92;;;25.30;80.00;;;;;;5039596;28;20381;-91
2022/08/23 05:23:10;;;;;;;3.75;1.70;;;25.30;79.80;;;;;;5035026;28;20075;-91
2022/08/23 05:25:48;;;;;;;4.30;1.90;;;25.30;79.40;;;;;;5052234;28;20025;-91
2022/08/23 05:28:21;;;;;;;5.63;2.08;;;25.40;79.30;;;;;;5054151;28;20469;-91
2022/08/23 05:31:03;;;;;;;4.25;1.80;;;25.40;79.00;;;;;;5054626;28;20032;-90
2022/08/23 05:33:31;;;;;;;4.35;1.70;;;25.50;78.90;;;;;;5047161;28;20047;-92
2022/08/23 05:35:57;;;;;;;2.67;2.10;;;25.50;78.80;;;;;;5040142;28;20029;-88
2022/08/23 05:38:23;;;;;;;4.43;1.73;;;25.60;78.60;;;;;;5050577;28;20373;-90
2022/08/23 05:40:51;;;;;;;3.40;2.13;;;25.60;78.50;;;;;;5055100;28;20032;-90
2022/08/23 05:43:18;;;;;;;6.30;1.95;;;25.60;78.30;;;;;;5053586;28;20079;-90
2022/08/23 05:45:44;;;;;;;3.75;2.00;;;25.60;78.10;;;;;;5054825;28;20032;-91
2022/08/23 05:48:17;;;;;;;2.00;1.52;;;25.50;78.60;;;;;;5052934;28;20025;-92
2022/08/23 05:50:42;;;;;;;2.85;1.73;;;25.60;78.40;;;;;;5055192;28;20049;-90
2022/08/23 05:53:09;;;;;;;4.18;2.00;;;25.60;78.40;;;;;;5036325;28;20071;-90
2022/08/23 05:55:35;;;;;;;4.65;2.03;;;25.60;78.20;;;;;;5050331;28;20572;-90
2022/08/23 05:58:01;;;;;;;3.25;2.03;;;25.60;78.20;;;;;;5035781;28;20065;-90
2022/08/23 06:00:27;;;;;;;4.05;2.20;;;25.70;78.10;;;;;;5036028;28;20057;-91
2022/08/23 06:02:53;;;;;;;2.47;1.98;;;25.70;77.70;;;;;;5051952;28;20166;-93
2022/08/23 06:05:20;;;;;;;2.30;1.52;;;25.70;77.80;;;;;;5075349;28;20096;-92
2022/08/23 06:07:46;;;;;;;6.97;2.60;;;25.60;77.70;;;;;;5074128;28;20028;-91
2022/08/23 06:10:12;;;;;;;3.42;2.08;;;25.50;77.70;;;;;;5074942;28;20031;-89
2022/08/23 06:12:38;;;;;;;8.25;2.33;;;25.50;77.90;;;;;;5053949;28;20033;-90
2022/08/23 06:15:03;;;;;;;8.52;2.80;;;25.40;78.20;;;;;;5052475;28;20416;-90
2022/08/23 06:17:29;;;;;;;5.50;2.55;;;25.30;77.90;;;;;;5053369;28;20061;-90
2022/08/23 06:19:55;;;;;;;8.07;2.95;;;25.30;78.00;;;;;;5055183;28;20041;-90
2022/08/23 06:22:21;;;;;;;5.95;3.10;;;25.30;78.20;;;;;;5053191;28;20033;-89
2022/08/23 06:24:46;;;;;;;5.05;2.22;;;25.20;78.40;;;;;;5055622;28;20021;-91
2022/08/23 06:27:12;;;;;;;4.47;2.60;;;25.20;78.60;;;;;;5047200;28;20048;-86
2022/08/23 06:29:38;;;;;;;7.45;2.30;;;25.10;79.30;;;;;;5052467;28;20078;-87
2022/08/23 06:32:04;;;;;;;4.45;2.55;;;25.10;79.40;;;;;;5052059;28;20025;-87
2022/08/23 06:34:36;;;;;;;2.88;2.10;;;25.10;78.90;;;;;;5051483;28;20017;-87
2022/08/23 06:37:05;;;;;;;5.78;2.63;;;25.00;78.90;;;;;;5051225;28;20035;-87
2022/08/23 06:39:32;;;;;;;3.28;2.53;;;25.00;79.20;;;;;;5048354;28;20029;-86
2022/08/23 06:42:01;;;;;;;4.40;1.95;;;25.00;79.00;;;;;;5045178;28;20036;-88
2022/08/23 06:44:28;;;;;;;3.87;1.87;;;25.00;78.90;;;;;;5054102;28;20024;-87
2022/08/23 06:46:55;;;;;;;2.15;1.80;;;25.10;79.60;;;;;;5054036;28;20053;-87
2022/08/23 06:49:21;;;;;;;3.63;2.45;;;25.30;79.10;;;;;;5054076;28;20029;-87
2022/08/23 06:51:55;;;;;;;3.40;1.70;;;25.30;78.80;;;;;;5051180;28;20025;-85
2022/08/23 06:54:24;;;;;;;20.50;18.10;;;25.30;78.80;;;;;;5050557;28;20052;-85
2022/08/23 06:56:50;;;;;;;9.70;8.45;;;25.30;78.90;;;;;;5051904;28;20056;-86
2022/08/23 06:59:17;;;;;;;5.45;3.35;;;25.30;79.00;;;;;;5047178;28;20063;-86
2022/08/23 07:01:57;;;;;;;3.53;2.05;;;25.30;78.80;;;;;;5035017;28;20050;-87
2022/08/23 07:04:32;;;;;;;6.68;1.75;;;25.30;78.90;;;;;;5044140;28;20405;-85
2022/08/23 07:07:00;;;;;;;4.20;1.63;;;25.30;78.90;;;;;;5042130;28;20025;-85
2022/08/23 07:09:27;;;;;;;3.55;1.10;;;25.30;78.80;;;;;;5039202;28;20041;-87
2022/08/23 07:11:53;;;;;;;3.58;1.70;;;25.40;78.80;;;;;;5041369;28;20025;-87
2022/08/23 07:14:21;;;;;;;2.50;1.33;;;25.50;78.90;;;;;;5051392;28;20029;-86
2022/08/23 07:16:56;;;;;;;3.17;1.60;;;25.50;78.60;;;;;;5038277;28;20036;-88
2022/08/23 07:19:27;;;;;;;2.13;1.27;;;25.60;78.50;;;;;;5041204;28;20033;-92
2022/08/23 07:21:53;;;;;;;1.83;1.20;;;25.60;78.50;;;;;;5047791;28;20532;-91
2022/08/23 07:24:20;;;;;;;2.30;1.35;;;25.70;78.50;;;;;;5038727;28;20033;-92
2022/08/23 07:26:48;;;;;;;2.53;1.23;;;25.70;78.40;;;;;;5038712;28;20077;-91
2022/08/23 07:29:15;;;;;;;4.60;1.45;;;25.70;78.40;;;;;;5037006;28;20038;-92
2022/08/23 07:31:47;;;;;;;4.70;1.50;;;25.70;78.40;;;;;;5042427;28;20025;-92
2022/08/23 07:34:13;;;;;;;4.65;1.52;;;25.80;78.60;;;;;;5055557;28;20025;-89
2022/08/23 07:36:41;;;;;;;6.60;2.08;;;25.80;78.30;;;;;;5050012;28;20025;-91
2022/08/23 07:39:08;;;;;;;2.13;1.20;;;25.90;78.60;;;;;;5044254;28;20025;-91
2022/08/23 07:41:37;;;;;;;1.42;0.95;;;26.00;78.40;;;;;;5052370;28;20072;-93
2022/08/23 07:44:05;;;;;;;6.10;1.70;;;26.00;78.30;;;;;;5057063;28;20045;-93
2022/08/23 07:46:32;;;;;;;4.30;1.30;;;26.00;78.10;;;;;;5054550;28;20025;-94
2022/08/23 07:48:59;;;;;;;2.63;1.50;;;26.10;78.30;;;;;;5058662;28;20076;-91
2022/08/23 07:51:30;;;;;;;2.05;1.20;;;26.20;78.00;;;;;;5051586;28;20051;-90
2022/08/23 07:53:56;;;;;;;2.35;0.98;;;26.20;77.80;;;;;;5036621;28;20474;-92
2022/08/23 07:56:22;;;;;;;3.67;1.25;;;26.30;77.80;;;;;;5036939;28;20022;-91
2022/08/23 07:58:48;;;;;;;2.45;1.00;;;26.40;77.80;;;;;;5035433;28;20033;-93
2022/08/23 08:01:18;;;;;;;2.95;1.13;;;26.40;77.80;;;;;;5037508;28;20028;-91
2022/08/23 08:03:48;;;;;;;4.78;1.30;;;26.50;77.70;;;;;;5036274;28;20017;-91
2022/08/23 08:06:17;;;;;;;2.10;0.98;;;26.60;77.10;;;;;;5035019;28;20026;-93
2022/08/23 08:08:45;;;;;;;4.13;1.17;;;26.60;77.10;;;;;;5034748;28;20116;-92
2022/08/23 08:11:15;;;;;;;3.78;1.10;;;26.70;77.00;;;;;;5039234;28;20516;-92
2022/08/23 08:13:42;;;;;;;1.30;0.80;;;26.80;77.00;;;;;;5044856;28;20489;-92
2022/08/23 08:16:10;;;;;;;5.75;1.58;;;26.90;76.90;;;;;;5056735;28;20032;-94
2022/08/23 08:18:37;;;;;;;1.73;1.02;;;27.00;76.40;;;;;;5057079;28;20358;-93
2022/08/23 08:21:05;;;;;;;2.75;0.88;;;27.00;76.20;;;;;;5055464;28;20381;-91
2022/08/23 08:23:31;;;;;;;4.70;1.08;;;27.10;76.30;;;;;;5055968;28;20104;-92
2022/08/23 08:26:06;;;;;;;4.10;1.20;;;27.20;76.20;;;;;;5058248;28;20075;-92
2022/08/23 08:28:33;;;;;;;9.57;1.50;;;27.30;75.90;;;;;;5057419;28;20049;-91
2022/08/23 08:30:59;;;;;;;3.33;1.05;;;27.40;75.50;;;;;;5055315;28;20071;-93
2022/08/23 08:33:29;;;;;;;2.08;1.00;;;27.50;75.40;;;;;;5056254;28;20100;-92
2022/08/23 08:35:55;;;;;;;6.25;1.25;;;27.60;75.40;;;;;;5055178;28;20025;-89
2022/08/23 08:38:21;;;;;;;4.88;1.30;;;27.60;75.50;;;;;;5054634;28;20033;-88
2022/08/23 08:40:54;;;;;;;3.15;1.13;;;27.70;75.30;;;;;;5056060;28;20032;-89
2022/08/23 08:43:41;;;;;;;2.30;1.10;;;27.80;75.00;;;;;;5057158;28;20468;-89
2022/08/23 08:46:25;;;;;;;1.42;1.05;;;27.80;74.50;;;;;;5054960;28;20087;-86
2022/08/23 08:48:57;;;;;;;5.57;1.60;;;27.90;74.20;;;;;;5055764;28;20094;-87
2022/08/23 08:51:40;;;;;;;4.22;1.20;;;28.00;73.90;;;;;;5056593;28;20047;-92
2022/08/23 08:54:09;;;;;;;2.60;1.30;;;28.00;73.20;;;;;;5058911;28;20079;-90
2022/08/23 08:56:38;;;;;;;2.30;1.00;;;28.00;73.30;;;;;;5057957;28;20029;-91
2022/08/23 08:59:15;;;;;;;3.65;1.52;;;28.10;73.80;;;;;;5057485;28;20108;-92
2022/08/23 09:01:41;;;;;;;2.63;1.45;;;28.20;73.80;;;;;;5056657;28;20458;-91
2022/08/23 09:04:07;;;;;;;3.40;1.90;;;28.30;73.30;;;;;;5058088;28;20026;-94
2022/08/23 09:06:40;;;;;;;3.70;1.85;;;28.40;73.10;;;;;;5062470;28;20147;-90
2022/08/23 09:09:20;;;;;;;3.97;1.48;;;28.50;73.10;;;;;;5056766;28;20469;-86
2022/08/23 09:11:49;;;;;;;2.85;1.38;;;28.60;72.50;;;;;;5056534;28;20493;-85
2022/08/23 09:14:26;;;;;;;1.77;1.27;;;28.70;72.70;;;;;;5054831;28;20056;-82
2022/08/23 09:17:01;;;;;;;90.28;75.80;;;28.90;73.10;;;;;;5054126;28;20033;-81
2022/08/23 09:19:28;;;;;;;75.45;63.88;;;29.00;72.50;;;;;;5053566;28;20499;-82
2022/08/23 09:22:05;;;;;;;54.35;45.17;;;29.10;72.20;;;;;;5039252;28;20108;-86
2022/08/23 09:24:31;;;;;;;10.43;9.32;;;29.20;71.70;;;;;;5036005;28;20032;-86
2022/08/23 09:26:57;;;;;;;7.57;3.85;;;29.20;71.40;;;;;;5036646;28;20051;-86
2022/08/23 09:29:32;;;;;;;4.15;2.35;;;29.30;71.40;;;;;;5042927;28;20416;-87
2022/08/23 09:32:04;;;;;;;3.25;1.65;;;29.40;71.50;;;;;;5045773;28;20021;-85
2022/08/23 09:34:34;;;;;;;8.82;1.70;;;29.50;71.30;;;;;;5038463;28;20040;-83
2022/08/23 09:37:17;;;;;;;3.10;1.50;;;29.50;71.20;;;;;;5042270;28;20075;-86
2022/08/23 09:39:48;;;;;;;3.65;1.52;;;29.60;70.40;;;;;;5041205;28;20052;-85
2022/08/23 09:42:37;;;;;;;2.30;1.17;;;29.70;70.30;;;;;;5043610;28;20044;-86
2022/08/23 09:45:28;;;;;;;3.45;1.10;;;29.80;69.80;;;;;;5046099;28;20048;-84
2022/08/23 09:47:54;;;;;;;2.33;1.15;;;29.90;68.80;;;;;;5040071;28;20037;-84
2022/08/23 09:50:29;;;;;;;2.03;0.98;;;29.90;69.20;;;;;;5042286;28;20868;-85
2022/08/23 09:53:01;;;;;;;1.90;1.08;;;30.00;69.20;;;;;;5053779;28;20029;-84
2022/08/23 09:55:35;;;;;;;3.83;1.35;;;30.00;68.30;;;;;;5054703;28;20029;-84
2022/08/23 09:58:26;;;;;;;3.10;1.00;;;30.10;68.20;;;;;;5053968;28;20056;-85
2022/08/23 10:01:18;;;;;;;1.80;0.77;;;30.10;67.80;;;;;;5038727;28;20048;-84
2022/08/23 10:03:44;;;;;;;1.65;0.95;;;30.10;68.00;;;;;;5054250;28;20097;-85
2022/08/23 10:06:27;;;;;;;1.23;1.00;;;30.30;68.20;;;;;;5052395;28;20036;-85
2022/08/23 10:09:01;;;;;;;3.20;1.15;;;30.40;67.90;;;;;;5034630;28;20053;-85
2022/08/23 10:11:29;;;;;;;2.53;1.25;;;30.50;67.40;;;;;;5038275;28;20496;-86
2022/08/23 10:13:58;;;;;;;2.80;0.98;;;30.60;66.80;;;;;;5048892;28;20100;-86
2022/08/23 10:16:48;;;;;;;2.72;1.50;;;30.60;66.90;;;;;;5052381;28;20558;-84
2022/08/23 10:19:48;;;;;;;4.47;1.70;;;30.60;66.00;;;;;;5054233;28;20041;-87
2022/08/23 10:22:19;;;;;;;2.42;1.30;;;30.60;66.40;;;;;;5038182;28;20073;-84
2022/08/23 10:25:06;;;;;;;3.00;1.48;;;30.70;66.90;;;;;;5041287;28;20021;-84
2022/08/23 10:30:56;;;;;;;3.95;1.00;;;30.70;65.20;;;;;;5054087;28;20044;-84
2022/08/23 10:33:53;;;;;;;2.03;1.17;;;30.60;66.00;;;;;;5048243;28;20033;-84
2022/08/23 10:36:26;;;;;;;6.07;1.65;;;30.50;66.00;;;;;;5052501;28;20036;-85
2022/08/23 10:38:56;;;;;;;2.10;1.20;;;30.50;66.00;;;;;;5047950;28;20179;-84
2022/08/23 10:41:40;;;;;;;;;;;30.50;66.20;;;;;;5039996;28;20033;-85
2022/08/23 10:44:08;;;;;;;2.85;1.23;;;30.70;65.70;;;;;;5052738;28;20011;-85
2022/08/23 10:46:41;;;;;;;4.80;1.02;;;30.90;65.50;;;;;;5042738;28;20464;-86
2022/08/23 10:49:12;;;;;;;2.30;1.15;;;31.10;65.40;;;;;;5034961;28;20116;-84
2022/08/23 10:51:43;;;;;;;3.03;1.30;;;31.30;65.00;;;;;;5038917;28;20036;-84
2022/08/23 10:54:17;;;;;;;1.15;0.75;;;31.50;64.70;;;;;;5033510;28;20355;-85
2022/08/23 10:56:43;;;;;;;2.72;1.20;;;31.70;64.20;;;;;;5033495;28;20408;-85
2022/08/23 10:59:19;;;;;;;3.70;1.17;;;32.00;63.80;;;;;;5033554;28;20033;-84
2022/08/23 11:02:16;;;;;;;3.67;1.15;;;32.10;63.30;;;;;;5033821;28;20036;-84
2022/08/23 11:05:00;;;;;;;6.13;1.67;;;32.30;64.10;;;;;;5035940;28;20640;-85
2022/08/23 11:07:33;;;;;;;5.03;1.35;;;32.40;64.40;;;;;;5051600;28;20381;-84
2022/08/23 11:10:04;;;;;;;2.17;1.23;;;32.40;64.40;;;;;;5052912;28;20055;-86
2022/08/23 11:12:34;;;;;;;2.85;1.05;;;32.30;64.00;;;;;;5047608;28;20033;-86
2022/08/23 11:15:17;;;;;;;4.07;1.60;;;32.30;64.10;;;;;;5042419;28;20037;-87
2022/08/23 11:17:56;;;;;;;2.38;1.27;;;32.20;63.90;;;;;;5053453;28;20024;-87
2022/08/23 11:20:55;;;;;;;3.58;1.45;;;32.20;63.70;;;;;;5052261;28;20086;-87
2022/08/23 11:23:49;;;;;;;2.05;1.42;;;32.20;63.20;;;;;;5052859;28;20036;-85
2022/08/23 11:26:21;;;;;;;3.63;1.50;;;32.30;63.80;;;;;;5052505;28;20480;-83
2022/08/23 11:28:51;;;;;;;3.33;1.70;;;32.30;63.80;;;;;;5052949;28;20102;-83
2022/08/23 11:31:20;;;;;;;7.38;1.40;;;32.20;63.70;;;;;;5052741;28;20029;-88
2022/08/23 11:33:48;;;;;;;1.63;1.08;;;32.10;63.90;;;;;;5052922;28;20036;-84
2022/08/23 11:36:20;;;;;;;2.40;1.50;;;32.10;64.10;;;;;;5051382;28;20032;-84
2022/08/23 11:38:45;;;;;;;2.47;1.33;;;32.00;64.20;;;;;;5052930;28;20087;-85
2022/08/23 11:41:34;;;;;;;3.20;1.55;;;32.00;64.60;;;;;;5052996;28;20025;-84
2022/08/23 11:44:03;;;;;;;3.45;1.85;;;31.90;65.40;;;;;;5049932;28;20044;-86
2022/08/23 11:46:53;;;;;;;3.13;1.20;;;32.00;65.60;;;;;;5051149;28;20029;-86
2022/08/23 11:49:27;;;;;;;5.93;2.00;;;32.20;64.70;;;;;;5021741;28;20044;-86
2022/08/23 11:52:21;;;;;;;4.07;1.40;;;32.50;63.80;;;;;;5052842;28;20029;-86
2022/08/23 11:55:24;;;;;;;2.83;1.40;;;32.90;63.30;;;;;;5053782;28;20025;-85
2022/08/23 11:57:53;;;;;;;4.30;1.50;;;33.30;61.60;;;;;;5058838;28;20025;-85
2022/08/23 12:00:49;;;;;;;3.95;1.45;;;33.60;61.60;;;;;;5051319;28;20052;-87
2022/08/23 12:03:43;;;;;;;1.80;1.30;;;33.90;60.50;;;;;;5052865;28;20052;-85
2022/08/23 12:06:29;;;;;;;2.67;1.38;;;34.30;59.60;;;;;;5049727;28;20401;-84
2022/08/23 12:09:01;;;;;;;3.38;1.20;;;34.50;59.40;;;;;;5042885;28;20095;-83
2022/08/23 12:12:11;;;;;;;2.83;1.55;;;34.80;59.00;;;;;;5037153;28;20371;-83
2022/08/23 12:14:44;;;;;;;4.43;1.20;;;35.10;58.30;;;;;;5013281;28;20034;-82
2022/08/23 12:17:15;;;;;;;3.88;1.80;;;35.30;58.00;;;;;;5034352;28;20103;-84
2022/08/23 12:19:57;;;;;;;3.50;1.40;;;35.50;57.20;;;;;;5035000;28;20041;-82
2022/08/23 12:22:28;;;;;;;4.05;1.45;;;35.60;55.40;;;;;;5035467;28;20037;-84
2022/08/23 12:25:07;;;;;;;4.70;1.42;;;35.70;56.10;;;;;;5036527;28;20029;-84
2022/08/23 12:27:35;;;;;;;1.65;1.10;;;35.90;55.80;;;;;;5037010;28;20026;-84
2022/08/23 12:30:10;;;;;;;2.60;1.20;;;35.90;56.10;;;;;;5036287;28;20128;-85
2022/08/23 12:32:41;;;;;;;2.45;1.20;;;35.70;54.80;;;;;;5035708;28;20040;-85
2022/08/23 12:35:33;;;;;;;2.35;1.20;;;35.20;55.40;;;;;;5044535;28;20082;-82
2022/08/23 12:38:05;;;;;;;4.07;1.63;;;34.80;55.30;;;;;;5049614;28;20375;-85
2022/08/23 12:40:38;;;;;;;2.28;1.15;;;34.50;56.00;;;;;;5049318;28;20040;-85
2022/08/23 12:43:09;;;;;;;2.33;1.40;;;34.50;56.70;;;;;;5055670;28;20049;-84
2022/08/23 12:45:38;;;;;;;2.00;1.35;;;34.40;57.00;;;;;;5056003;28;20776;-87
2022/08/23 12:48:11;;;;;;;5.75;1.42;;;34.50;57.40;;;;;;5054133;28;20477;-87
2022/08/23 12:50:40;;;;;;;3.47;1.63;;;34.50;57.10;;;;;;5055197;28;20496;-85
2022/08/23 12:53:10;;;;;;;1.93;1.20;;;34.50;56.30;;;;;;5055563;28;20106;-84
2022/08/23 12:55:38;;;;;;;;;;;34.50;56.50;;;;;;5051886;28;20264;-82
2022/08/23 12:58:06;;;;;;;2.70;1.10;;;34.50;56.40;;;;;;5035490;28;19905;-85
2022/08/23 13:00:57;;;;;;;3.30;1.38;;;34.30;56.60;;;;;;5035739;28;20028;-85
2022/08/23 13:03:43;;;;;;;2.42;1.20;;;34.20;56.60;;;;;;5035145;28;20021;-86
2022/08/23 13:06:13;;;;;;;2.75;1.35;;;34.20;57.20;;;;;;5036237;28;20018;-84
2022/08/23 13:08:48;;;;;;;3.45;1.10;;;34.30;57.40;;;;;;5035452;28;20377;-84
2022/08/23 13:11:19;;;;;;;1.92;1.00;;;34.50;56.70;;;;;;5035479;28;20033;-84
2022/08/23 13:13:48;;;;;;;2.47;1.02;;;34.60;56.70;;;;;;5042738;28;20043;-85
2022/08/23 13:16:31;;;;;;;3.10;1.00;;;34.60;56.50;;;;;;5055312;28;20043;-84
2022/08/23 13:19:31;;;;;;;2.25;1.00;;;34.70;55.80;;;;;;5054420;28;20550;-87